sensor_id;sensor_type;location;lat;lon;timestamp;pressure;altitude;pressure_sealevel;temperature;humidity
9421;BME280;4749;51.398;5.466;2023-07-20T00:01:55;101185.53;;;18.75;100.00
9421;BME280;4749;51.398;5.466;2023-07-20T00:04:22;101190.09;;;18.70;100.00
9421;BME280;4749;51.398;5.466;2023-07-20T00:06:49;101184.88;;;18.66;100.00
9421;BME280;4749;51.398;5.466;2023-07-20T00:09:16;101189.47;;;18.59;100.00
9421;BME280;4749;51.398;5.466;2023-07-20T00:11:49;101194.94;;;18.53;100.00
9421;BME280;4749;51.398;5.466;2023-07-20T00:14:20;101187.09;;;18.47;100.00
9421;BME280;4749;51.398;5.466;2023-07-20T00:16:49;101195.22;;;18.42;100.00
9421;BME280;4749;51.398;5.466;2023-07-20T00:19:26;101190.06;;;18.35;100.00
9421;BME280;4749;51.398;5.466;2023-07-20T00:21:54;101187.59;;;18.27;100.00
9421;BME280;4749;51.398;5.466;2023-07-20T00:24:23;101184.16;;;18.22;100.00
9421;BME280;4749;51.398;5.466;2023-07-20T00:26:50;101190.47;;;18.18;100.00
9421;BME280;4749;51.398;5.466;2023-07-20T00:29:18;101187.91;;;18.13;100.00
9421;BME280;4749;51.398;5.466;2023-07-20T00:31:45;101188.94;;;18.08;100.00
9421;BME280;4749;51.398;5.466;2023-07-20T00:34:14;101184.59;;;18.04;100.00
9421;BME280;4749;51.398;5.466;2023-07-20T00:36:41;101185.53;;;18.01;100.00
9421;BME280;4749;51.398;5.466;2023-07-20T00:39:08;101188.25;;;17.98;100.00
9421;BME280;4749;51.398;5.466;2023-07-20T00:41:35;101190.09;;;17.94;100.00
9421;BME280;4749;51.398;5.466;2023-07-20T00:44:02;101188.41;;;17.92;100.00
9421;BME280;4749;51.398;5.466;2023-07-20T00:46:29;101191.09;;;17.89;100.00
9421;BME280;4749;51.398;5.466;2023-07-20T00:48:56;101187.69;;;17.84;100.00
9421;BME280;4749;51.398;5.466;2023-07-20T00:51:25;101195.69;;;17.82;100.00
9421;BME280;4749;51.398;5.466;2023-07-20T00:53:53;101194.88;;;17.79;100.00
9421;BME280;4749;51.398;5.466;2023-07-20T00:56:22;101188.78;;;17.73;100.00
9421;BME280;4749;51.398;5.466;2023-07-20T00:58:50;101193.31;;;17.68;100.00
9421;BME280;4749;51.398;5.466;2023-07-20T01:01:17;101191.59;;;17.66;100.00
9421;BME280;4749;51.398;5.466;2023-07-20T01:03:44;101193.41;;;17.62;100.00
9421;BME280;4749;51.398;5.466;2023-07-20T01:06:36;101201.50;;;17.58;100.00
9421;BME280;4749;51.398;5.466;2023-07-20T01:09:12;101195.34;;;17.54;100.00
9421;BME280;4749;51.398;5.466;2023-07-20T01:12:13;101199.00;;;17.50;100.00
9421;BME280;4749;51.398;5.466;2023-07-20T01:14:44;101203.50;;;17.47;100.00
9421;BME280;4749;51.398;5.466;2023-07-20T01:17:11;101200.03;;;17.43;100.00
9421;BME280;4749;51.398;5.466;2023-07-20T01:19:39;101207.16;;;17.41;100.00
9421;BME280;4749;51.398;5.466;2023-07-20T01:31:26;101200.34;;;17.26;100.00
9421;BME280;4749;51.398;5.466;2023-07-20T01:33:58;101198.56;;;17.27;100.00
9421;BME280;4749;51.398;5.466;2023-07-20T01:36:29;101192.34;;;17.28;100.00
9421;BME280;4749;51.398;5.466;2023-07-20T01:38:57;101193.25;;;17.27;100.00
9421;BME280;4749;51.398;5.466;2023-07-20T01:41:24;101193.34;;;17.24;100.00
9421;BME280;4749;51.398;5.466;2023-07-20T01:43:51;101189.84;;;17.20;100.00
9421;BME280;4749;51.398;5.466;2023-07-20T01:46:18;101190.81;;;17.16;100.00
9421;BME280;4749;51.398;5.466;2023-07-20T01:48:46;101195.28;;;17.12;100.00
9421;BME280;4749;51.398;5.466;2023-07-20T01:51:14;101201.47;;;17.13;100.00
9421;BME280;4749;51.398;5.466;2023-07-20T01:53:41;101200.56;;;17.15;100.00
9421;BME280;4749;51.398;5.466;2023-07-20T01:56:08;101199.59;;;17.20;100.00
9421;BME280;4749;51.398;5.466;2023-07-20T01:58:35;101203.97;;;17.24;100.00
9421;BME280;4749;51.398;5.466;2023-07-20T02:01:02;101202.06;;;17.29;100.00
9421;BME280;4749;51.398;5.466;2023-07-20T02:03:30;101207.31;;;17.33;100.00
9421;BME280;4749;51.398;5.466;2023-07-20T02:05:57;101208.03;;;17.40;100.00
9421;BME280;4749;51.398;5.466;2023-07-20T02:08:24;101212.31;;;17.49;100.00
9421;BME280;4749;51.398;5.466;2023-07-20T02:10:51;101207.78;;;17.54;100.00
9421;BME280;4749;51.398;5.466;2023-07-20T02:13:18;101210.38;;;17.58;100.00
9421;BME280;4749;51.398;5.466;2023-07-20T02:15:45;101214.69;;;17.62;100.00
9421;BME280;4749;51.398;5.466;2023-07-20T02:18:14;101211.13;;;17.63;100.00
9421;BME280;4749;51.398;5.466;2023-07-20T02:20:41;101218.19;;;17.66;100.00
9421;BME280;4749;51.398;5.466;2023-07-20T02:23:09;101218.97;;;17.69;100.00
9421;BME280;4749;51.398;5.466;2023-07-20T02:25:37;101213.66;;;17.71;100.00
9421;BME280;4749;51.398;5.466;2023-07-20T02:28:04;101216.28;;;17.74;100.00
9421;BME280;4749;51.398;5.466;2023-07-20T02:30:31;101212.69;;;17.75;100.00
9421;BME280;4749;51.398;5.466;2023-07-20T02:32:58;101224.22;;;17.76;100.00
9421;BME280;4749;51.398;5.466;2023-07-20T02:35:26;101220.63;;;17.77;100.00
9421;BME280;4749;51.398;5.466;2023-07-20T02:37:53;101221.50;;;17.77;100.00
9421;BME280;4749;51.398;5.466;2023-07-20T02:40:21;101221.50;;;17.77;100.00
9421;BME280;4749;51.398;5.466;2023-07-20T02:42:48;101225.97;;;17.77;100.00
9421;BME280;4749;51.398;5.466;2023-07-20T02:45:16;101222.44;;;17.76;100.00
9421;BME280;4749;51.398;5.466;2023-07-20T02:47:43;101225.97;;;17.77;100.00
9421;BME280;4749;51.398;5.466;2023-07-20T02:50:10;101231.28;;;17.77;100.00
9421;BME280;4749;51.398;5.466;2023-07-20T02:52:40;101227.75;;;17.76;100.00
9421;BME280;4749;51.398;5.466;2023-07-20T02:55:08;101240.16;;;17.76;100.00
9421;BME280;4749;51.398;5.466;2023-07-20T02:57:35;101234.88;;;17.74;100.00
9421;BME280;4749;51.398;5.466;2023-07-20T03:00:03;101239.25;;;17.77;100.00
9421;BME280;4749;51.398;5.466;2023-07-20T03:02:33;101245.41;;;17.79;100.00
9421;BME280;4749;51.398;5.466;2023-07-20T03:05:00;101256.00;;;17.80;100.00
9421;BME280;4749;51.398;5.466;2023-07-20T03:07:30;101252.44;;;17.83;100.00
9421;BME280;4749;51.398;5.466;2023-07-20T03:09:57;101255.06;;;17.84;100.00
9421;BME280;4749;51.398;5.466;2023-07-20T03:12:24;101249.69;;;17.86;100.00
9421;BME280;4749;51.398;5.466;2023-07-20T03:14:51;101250.63;;;17.85;100.00
9421;BME280;4749;51.398;5.466;2023-07-20T03:17:19;101259.50;;;17.84;100.00
9421;BME280;4749;51.398;5.466;2023-07-20T03:19:47;101256.84;;;17.84;100.00
9421;BME280;4749;51.398;5.466;2023-07-20T03:22:14;101256.81;;;17.85;100.00
9421;BME280;4749;51.398;5.466;2023-07-20T03:24:41;101260.34;;;17.86;100.00
9421;BME280;4749;51.398;5.466;2023-07-20T03:27:08;101259.44;;;17.87;100.00
9421;BME280;4749;51.398;5.466;2023-07-20T03:29:35;101262.09;;;17.87;100.00
9421;BME280;4749;51.398;5.466;2023-07-20T03:32:02;101260.34;;;17.86;100.00
9421;BME280;4749;51.398;5.466;2023-07-20T03:34:30;101257.72;;;17.84;100.00
9421;BME280;4749;51.398;5.466;2023-07-20T03:36:57;101258.59;;;17.85;100.00
9421;BME280;4749;51.398;5.466;2023-07-20T03:39:24;101271.00;;;17.84;100.00
9421;BME280;4749;51.398;5.466;2023-07-20T03:41:51;101264.81;;;17.84;100.00
9421;BME280;4749;51.398;5.466;2023-07-20T03:44:18;101271.94;;;17.83;100.00
9421;BME280;4749;51.398;5.466;2023-07-20T03:46:45;101269.31;;;17.80;100.00
9421;BME280;4749;51.398;5.466;2023-07-20T03:49:12;101275.53;;;17.79;100.00
9421;BME280;4749;51.398;5.466;2023-07-20T03:51:39;101274.63;;;17.80;100.00
9421;BME280;4749;51.398;5.466;2023-07-20T03:54:06;101275.47;;;17.82;100.00
9421;BME280;4749;51.398;5.466;2023-07-20T03:56:34;101271.88;;;17.85;100.00
9421;BME280;4749;51.398;5.466;2023-07-20T03:59:02;101278.91;;;17.87;100.00
9421;BME280;4749;51.398;5.466;2023-07-20T04:01:29;101280.63;;;17.91;100.00
9421;BME280;4749;51.398;5.466;2023-07-20T04:03:57;101283.25;;;17.93;100.00
9421;BME280;4749;51.398;5.466;2023-07-20T04:06:24;101284.03;;;17.96;100.00
9421;BME280;4749;51.398;5.466;2023-07-20T04:08:52;101280.47;;;17.97;100.00
9421;BME280;4749;51.398;5.466;2023-07-20T04:11:19;101282.22;;;17.98;100.00
9421;BME280;4749;51.398;5.466;2023-07-20T04:13:46;101276.94;;;17.97;100.00
9421;BME280;4749;51.398;5.466;2023-07-20T04:16:13;101286.66;;;17.98;100.00
9421;BME280;4749;51.398;5.466;2023-07-20T04:18:40;101277.78;;;17.99;100.00
9421;BME280;4749;51.398;5.466;2023-07-20T04:21:10;101284.75;;;18.05;100.00
9421;BME280;4749;51.398;5.466;2023-07-20T04:23:37;101281.09;;;18.10;100.00
9421;BME280;4749;51.398;5.466;2023-07-20T04:26:04;101282.69;;;18.19;100.00
9421;BME280;4749;51.398;5.466;2023-07-20T04:28:33;101278.94;;;18.27;100.00
9421;BME280;4749;51.398;5.466;2023-07-20T04:31:14;101289.31;;;18.40;100.00
9421;BME280;4749;51.398;5.466;2023-07-20T04:33:41;101292.59;;;18.52;100.00
9421;BME280;4749;51.398;5.466;2023-07-20T04:36:08;101288.00;;;18.59;100.00
9421;BME280;4749;51.398;5.466;2023-07-20T04:38:36;101287.88;;;18.65;100.00
9421;BME280;4749;51.398;5.466;2023-07-20T04:41:03;101302.75;;;18.74;100.00
9421;BME280;4749;51.398;5.466;2023-07-20T04:43:30;101299.16;;;18.76;100.00
9421;BME280;4749;51.398;5.466;2023-07-20T04:45:57;101294.75;;;18.74;100.00
9421;BME280;4749;51.398;5.466;2023-07-20T04:48:25;101290.47;;;18.68;100.00
9421;BME280;4749;51.398;5.466;2023-07-20T04:50:52;101294.06;;;18.67;100.00
9421;BME280;4749;51.398;5.466;2023-07-20T04:53:19;101294.00;;;18.69;100.00
9421;BME280;4749;51.398;5.466;2023-07-20T04:55:50;101290.34;;;18.73;100.00
9421;BME280;4749;51.398;5.466;2023-07-20T04:58:20;101291.91;;;18.81;100.00
9421;BME280;4749;51.398;5.466;2023-07-20T05:00:51;101284.38;;;18.99;100.00
9421;BME280;4749;51.398;5.466;2023-07-20T05:03:20;101285.94;;;19.07;100.00
9421;BME280;4749;51.398;5.466;2023-07-20T05:05:48;101292.13;;;19.08;100.00
9421;BME280;4749;51.398;5.466;2023-07-20T05:08:16;101285.97;;;19.06;100.00
9421;BME280;4749;51.398;5.466;2023-07-20T05:10:43;101288.69;;;19.04;100.00
9421;BME280;4749;51.398;5.466;2023-07-20T05:13:11;101283.31;;;19.06;100.00
9421;BME280;4749;51.398;5.466;2023-07-20T05:15:38;101287.72;;;19.07;100.00
9421;BME280;4749;51.398;5.466;2023-07-20T05:18:05;101286.94;;;19.03;100.00
9421;BME280;4749;51.398;5.466;2023-07-20T05:20:34;101291.03;;;19.17;100.00
9421;BME280;4749;51.398;5.466;2023-07-20T05:23:01;101283.69;;;19.26;100.00
9421;BME280;4749;51.398;5.466;2023-07-20T05:25:28;101288.84;;;19.32;100.00
9421;BME280;4749;51.398;5.466;2023-07-20T05:27:57;101290.63;;;19.32;100.00
9421;BME280;4749;51.398;5.466;2023-07-20T05:30:24;101293.16;;;19.38;100.00
9421;BME280;4749;51.398;5.466;2023-07-20T05:32:52;101286.38;;;19.59;100.00
9421;BME280;4749;51.398;5.466;2023-07-20T05:35:21;101299.91;;;19.84;100.00
9421;BME280;4749;51.398;5.466;2023-07-20T05:37:49;101299.50;;;19.98;100.00
9421;BME280;4749;51.398;5.466;2023-07-20T05:40:16;101304.25;;;19.88;100.00
9421;BME280;4749;51.398;5.466;2023-07-20T05:42:47;101315.88;;;19.85;100.00
9421;BME280;4749;51.398;5.466;2023-07-20T05:45:15;101311.81;;;19.72;100.00
9421;BME280;4749;51.398;5.466;2023-07-20T05:47:42;101314.50;;;19.71;100.00
9421;BME280;4749;51.398;5.466;2023-07-20T05:50:10;101312.50;;;19.79;100.00
9421;BME280;4749;51.398;5.466;2023-07-20T05:52:37;101313.94;;;19.90;100.00
9421;BME280;4749;51.398;5.466;2023-07-20T05:55:06;101317.88;;;20.08;100.00
9421;BME280;4749;51.398;5.466;2023-07-20T05:57:34;101323.59;;;20.25;100.00
9421;BME280;4749;51.398;5.466;2023-07-20T06:00:02;101316.06;;;20.40;100.00
9421;BME280;4749;51.398;5.466;2023-07-20T06:02:30;101315.63;;;20.55;100.00
9421;BME280;4749;51.398;5.466;2023-07-20T06:04:59;101315.19;;;20.69;100.00
9421;BME280;4749;51.398;5.466;2023-07-20T06:07:27;101320.06;;;20.83;100.00
9421;BME280;4749;51.398;5.466;2023-07-20T06:09:54;101314.66;;;20.86;100.00
9421;BME280;4749;51.398;5.466;2023-07-20T06:12:21;101321.81;;;20.84;100.00
9421;BME280;4749;51.398;5.466;2023-07-20T06:14:48;101321.81;;;20.84;100.00
9421;BME280;4749;51.398;5.466;2023-07-20T06:17:15;101326.09;;;20.89;100.00
9421;BME280;4749;51.398;5.466;2023-07-20T06:19:42;101325.97;;;20.94;100.00
9421;BME280;4749;51.398;5.466;2023-07-20T06:22:09;101334.63;;;21.00;100.00
9421;BME280;4749;51.398;5.466;2023-07-20T06:24:36;101335.00;;;21.16;100.00
9421;BME280;4749;51.398;5.466;2023-07-20T06:27:04;101327.59;;;21.24;100.00
9421;BME280;4749;51.398;5.466;2023-07-20T06:29:34;101326.94;;;21.18;100.00
9421;BME280;4749;51.398;5.466;2023-07-20T06:32:01;101320.63;;;21.20;100.00
9421;BME280;4749;51.398;5.466;2023-07-20T06:34:28;101326.72;;;21.50;100.00
9421;BME280;4749;51.398;5.466;2023-07-20T06:36:56;101329.25;;;21.55;100.00
9421;BME280;4749;51.398;5.466;2023-07-20T06:39:23;101335.38;;;21.58;100.00
9421;BME280;4749;51.398;5.466;2023-07-20T06:41:53;101334.28;;;21.64;100.00
9421;BME280;4749;51.398;5.466;2023-07-20T06:44:22;101325.19;;;21.68;100.00
9421;BME280;4749;51.398;5.466;2023-07-20T06:46:49;101330.41;;;21.73;100.00
9421;BME280;4749;51.398;5.466;2023-07-20T06:49:27;101336.28;;;21.82;100.00
9421;BME280;4749;51.398;5.466;2023-07-20T06:51:55;101335.28;;;21.86;100.00
9421;BME280;4749;51.398;5.466;2023-07-20T06:54:22;101332.25;;;21.96;100.00
9421;BME280;4749;51.398;5.466;2023-07-20T06:56:50;101339.22;;;22.00;100.00
9421;BME280;4749;51.398;5.466;2023-07-20T06:59:21;101337.97;;;22.10;100.00
9421;BME280;4749;51.398;5.466;2023-07-20T07:01:48;101345.50;;;22.24;100.00
9421;BME280;4749;51.398;5.466;2023-07-20T07:04:15;101348.19;;;22.24;100.00
9421;BME280;4749;51.398;5.466;2023-07-20T07:06:43;101354.69;;;22.16;100.00
9421;BME280;4749;51.398;5.466;2023-07-20T07:09:11;101350.41;;;22.12;100.00
9421;BME280;4749;51.398;5.466;2023-07-20T07:11:38;101351.69;;;22.01;100.00
9421;BME280;4749;51.398;5.466;2023-07-20T07:14:05;101358.97;;;21.97;100.00
9421;BME280;4749;51.398;5.466;2023-07-20T07:16:34;101364.03;;;22.05;100.00
9421;BME280;4749;51.398;5.466;2023-07-20T07:19:05;101365.06;;;22.26;100.00
9421;BME280;4749;51.398;5.466;2023-07-20T07:21:32;101366.28;;;22.40;100.00
9421;BME280;4749;51.398;5.466;2023-07-20T07:23:59;101371.13;;;22.54;100.00
9421;BME280;4749;51.398;5.466;2023-07-20T07:26:27;101366.31;;;22.86;100.00
9421;BME280;4749;51.398;5.466;2023-07-20T07:28:54;101364.78;;;23.24;100.00
9421;BME280;4749;51.398;5.466;2023-07-20T07:31:21;101358.88;;;23.36;100.00
9421;BME280;4749;51.398;5.466;2023-07-20T07:33:48;101354.53;;;23.54;100.00
9421;BME280;4749;51.398;5.466;2023-07-20T07:36:15;101363.25;;;23.81;100.00
9421;BME280;4749;51.398;5.466;2023-07-20T07:38:42;101367.75;;;23.80;100.00
9421;BME280;4749;51.398;5.466;2023-07-20T07:41:13;101364.69;;;23.47;100.00
9421;BME280;4749;51.398;5.466;2023-07-20T07:43:41;101366.69;;;23.20;100.00
9421;BME280;4749;51.398;5.466;2023-07-20T07:46:08;101371.53;;;23.12;100.00
9421;BME280;4749;51.398;5.466;2023-07-20T07:48:35;101374.13;;;22.92;100.00
9421;BME280;4749;51.398;5.466;2023-07-20T07:51:02;101380.25;;;22.72;100.00
9421;BME280;4749;51.398;5.466;2023-07-20T07:55:56;101384.53;;;22.31;100.00
9421;BME280;4749;51.398;5.466;2023-07-20T07:58:23;101379.72;;;22.15;100.00
9421;BME280;4749;51.398;5.466;2023-07-20T08:00:52;101377.28;;;22.09;100.00
9421;BME280;4749;51.398;5.466;2023-07-20T08:03:19;101379.00;;;22.10;100.00
9421;BME280;4749;51.398;5.466;2023-07-20T08:05:47;101378.00;;;22.14;100.00
9421;BME280;4749;51.398;5.466;2023-07-20T08:08:14;101388.69;;;22.61;100.00
9421;BME280;4749;51.398;5.466;2023-07-20T08:10:41;101401.94;;;23.11;100.00
9421;BME280;4749;51.398;5.466;2023-07-20T08:13:08;101391.28;;;23.31;100.00
9421;BME280;4749;51.398;5.466;2023-07-20T08:15:35;101391.94;;;23.37;100.00
9421;BME280;4749;51.398;5.466;2023-07-20T08:18:03;101393.50;;;23.64;100.00
9421;BME280;4749;51.398;5.466;2023-07-20T08:20:30;101396.66;;;23.94;100.00
9421;BME280;4749;51.398;5.466;2023-07-20T08:22:59;101387.72;;;24.14;100.00
9421;BME280;4749;51.398;5.466;2023-07-20T08:25:26;101386.34;;;24.24;100.00
9421;BME280;4749;51.398;5.466;2023-07-20T08:27:53;101384.38;;;24.28;100.00
9421;BME280;4749;51.398;5.466;2023-07-20T08:30:23;101394.13;;;24.30;100.00
9421;BME280;4749;51.398;5.466;2023-07-20T08:32:50;101393.53;;;24.24;100.00
9421;BME280;4749;51.398;5.466;2023-07-20T08:35:18;101393.97;;;24.14;100.00
9421;BME280;4749;51.398;5.466;2023-07-20T08:37:48;101394.50;;;24.23;100.00
9421;BME280;4749;51.398;5.466;2023-07-20T08:40:15;101406.44;;;24.36;100.00
9421;BME280;4749;51.398;5.466;2023-07-20T08:42:42;101395.56;;;24.39;100.00
9421;BME280;4749;51.398;5.466;2023-07-20T08:45:12;101386.47;;;24.41;100.00
9421;BME280;4749;51.398;5.466;2023-07-20T08:47:42;101392.50;;;24.47;100.00
9421;BME280;4749;51.398;5.466;2023-07-20T08:50:11;101391.16;;;24.57;100.00
9421;BME280;4749;51.398;5.466;2023-07-20T08:52:39;101382.06;;;24.40;100.00
9421;BME280;4749;51.398;5.466;2023-07-20T08:55:06;101383.66;;;24.24;100.00
9421;BME280;4749;51.398;5.466;2023-07-20T08:57:34;101381.25;;;24.38;100.00
9421;BME280;4749;51.398;5.466;2023-07-20T09:00:04;101388.16;;;24.63;100.00
9421;BME280;4749;51.398;5.466;2023-07-20T09:02:39;101391.63;;;24.84;100.00
9421;BME280;4749;51.398;5.466;2023-07-20T09:05:10;101391.97;;;25.14;100.00
9421;BME280;4749;51.398;5.466;2023-07-20T09:07:39;101381.16;;;25.15;100.00
9421;BME280;4749;51.398;5.466;2023-07-20T09:10:07;101387.78;;;25.08;100.00
9421;BME280;4749;51.398;5.466;2023-07-20T09:12:42;101378.47;;;24.78;100.00
9421;BME280;4749;51.398;5.466;2023-07-20T09:15:11;101375.81;;;24.59;100.00
9421;BME280;4749;51.398;5.466;2023-07-20T09:17:38;101370.13;;;24.46;100.00
9421;BME280;4749;51.398;5.466;2023-07-20T09:20:08;101375.22;;;24.33;100.00
9421;BME280;4749;51.398;5.466;2023-07-20T09:22:38;101377.00;;;24.12;100.00
9421;BME280;4749;51.398;5.466;2023-07-20T09:25:17;101377.31;;;24.06;100.00
9421;BME280;4749;51.398;5.466;2023-07-20T09:27:48;101378.38;;;24.23;100.00
9421;BME280;4749;51.398;5.466;2023-07-20T09:30:18;101381.97;;;24.42;100.00
9421;BME280;4749;51.398;5.466;2023-07-20T09:32:49;101375.13;;;24.91;97.66
9421;BME280;4749;51.398;5.466;2023-07-20T09:35:22;101372.63;;;25.24;96.01
9421;BME280;4749;51.398;5.466;2023-07-20T09:38:00;101375.75;;;25.86;91.65
9421;BME280;4749;51.398;5.466;2023-07-20T09:40:30;101363.88;;;26.23;90.36
9421;BME280;4749;51.398;5.466;2023-07-20T09:43:10;101377.94;;;26.46;86.29
9421;BME280;4749;51.398;5.466;2023-07-20T09:45:42;101366.69;;;26.37;83.68
9421;BME280;4749;51.398;5.466;2023-07-20T09:48:12;101365.22;;;26.32;82.06
9421;BME280;4749;51.398;5.466;2023-07-20T09:50:50;101363.88;;;26.23;80.18
9421;BME280;4749;51.398;5.466;2023-07-20T09:53:20;101359.00;;;25.97;80.55
9421;BME280;4749;51.398;5.466;2023-07-20T09:55:48;101359.97;;;25.96;79.54
9421;BME280;4749;51.398;5.466;2023-07-20T09:58:16;101352.44;;;26.02;78.90
9421;BME280;4749;51.398;5.466;2023-07-20T10:00:45;101355.28;;;26.17;78.23
9421;BME280;4749;51.398;5.466;2023-07-20T10:03:22;101349.44;;;26.42;77.64
9421;BME280;4749;51.398;5.466;2023-07-20T10:05:57;101356.22;;;26.80;77.13
9421;BME280;4749;51.398;5.466;2023-07-20T10:08:26;101361.38;;;27.16;75.81
9421;BME280;4749;51.398;5.466;2023-07-20T10:11:02;101357.03;;;27.44;73.69
9421;BME280;4749;51.398;5.466;2023-07-20T10:13:32;101349.25;;;27.54;72.83
9421;BME280;4749;51.398;5.466;2023-07-20T10:16:10;101353.91;;;27.36;71.00
9421;BME280;4749;51.398;5.466;2023-07-20T10:18:50;101351.75;;;27.27;70.58
9421;BME280;4749;51.398;5.466;2023-07-20T10:21:20;101350.75;;;27.43;70.28
9421;BME280;4749;51.398;5.466;2023-07-20T10:23:54;101356.41;;;27.39;69.41
9421;BME280;4749;51.398;5.466;2023-07-20T10:26:24;101339.97;;;27.43;67.66
9421;BME280;4749;51.398;5.466;2023-07-20T10:28:53;101340.06;;;27.56;66.46
9421;BME280;4749;51.398;5.466;2023-07-20T10:31:20;101339.41;;;27.53;66.11
9421;BME280;4749;51.398;5.466;2023-07-20T10:33:48;101338.94;;;27.60;65.71
9421;BME280;4749;51.398;5.466;2023-07-20T10:36:25;101338.25;;;28.01;64.32
9421;BME280;4749;51.398;5.466;2023-07-20T10:38:58;101332.28;;;28.10;64.29
9421;BME280;4749;51.398;5.466;2023-07-20T10:41:37;101331.91;;;28.30;63.71
9421;BME280;4749;51.398;5.466;2023-07-20T10:44:08;101336.91;;;28.37;63.70
9421;BME280;4749;51.398;5.466;2023-07-20T10:49:07;101328.88;;;28.07;62.33
9421;BME280;4749;51.398;5.466;2023-07-20T10:51:49;101328.16;;;27.74;61.56
9421;BME280;4749;51.398;5.466;2023-07-20T10:56:49;101333.41;;;27.17;62.44
9421;BME280;4749;51.398;5.466;2023-07-20T10:59:19;101321.50;;;27.06;62.14
9421;BME280;4749;51.398;5.466;2023-07-20T11:01:48;101323.59;;;26.85;62.30
9421;BME280;4749;51.398;5.466;2023-07-20T11:04:19;101318.41;;;26.66;62.27
9421;BME280;4749;51.398;5.466;2023-07-20T11:07:06;101321.09;;;26.66;62.27
9421;BME280;4749;51.398;5.466;2023-07-20T11:09:38;101320.47;;;27.08;62.36
9421;BME280;4749;51.398;5.466;2023-07-20T11:12:11;101318.25;;;27.45;62.42
9421;BME280;4749;51.398;5.466;2023-07-20T11:14:55;101319.72;;;27.95;60.60
9421;BME280;4749;51.398;5.466;2023-07-20T11:17:33;101312.75;;;28.05;60.18
9421;BME280;4749;51.398;5.466;2023-07-20T11:20:02;101324.66;;;28.02;60.07
9421;BME280;4749;51.398;5.466;2023-07-20T11:22:33;101304.69;;;28.34;59.72
9421;BME280;4749;51.398;5.466;2023-07-20T11:25:01;101310.91;;;28.48;59.25
9421;BME280;4749;51.398;5.466;2023-07-20T11:27:28;101302.91;;;28.32;59.24
9421;BME280;4749;51.398;5.466;2023-07-20T11:29:56;101303.50;;;28.09;59.76
9421;BME280;4749;51.398;5.466;2023-07-20T11:32:24;101298.97;;;27.81;59.83
9421;BME280;4749;51.398;5.466;2023-07-20T11:34:52;101301.66;;;27.37;59.88
9421;BME280;4749;51.398;5.466;2023-07-20T11:37:19;101307.28;;;27.02;59.91
9421;BME280;4749;51.398;5.466;2023-07-20T11:39:46;101298.25;;;26.87;60.16
9421;BME280;4749;51.398;5.466;2023-07-20T11:42:14;101297.81;;;26.95;60.37
9421;BME280;4749;51.398;5.466;2023-07-20T11:45:06;101292.84;;;27.19;60.44
9421;BME280;4749;51.398;5.466;2023-07-20T11:47:33;101296.47;;;27.48;60.46
9421;BME280;4749;51.398;5.466;2023-07-20T11:50:04;101289.22;;;27.79;60.40
9421;BME280;4749;51.398;5.466;2023-07-20T11:52:31;101299.25;;;28.19;60.56
9421;BME280;4749;51.398;5.466;2023-07-20T11:54:58;101298.38;;;28.19;60.22
9421;BME280;4749;51.398;5.466;2023-07-20T11:57:26;101292.59;;;28.11;60.07
9421;BME280;4749;51.398;5.466;2023-07-20T11:59:58;101294.41;;;28.24;59.65
9421;BME280;4749;51.398;5.466;2023-07-20T12:02:28;101290.09;;;28.36;59.30
9421;BME280;4749;51.398;5.466;2023-07-20T12:04:56;101287.94;;;28.41;59.00
9421;BME280;4749;51.398;5.466;2023-07-20T12:07:26;101289.09;;;28.51;59.08
9421;BME280;4749;51.398;5.466;2023-07-20T12:10:11;101285.16;;;28.70;58.59
9421;BME280;4749;51.398;5.466;2023-07-20T12:12:41;101289.34;;;28.88;58.72
9421;BME280;4749;51.398;5.466;2023-07-20T12:15:16;101291.31;;;29.13;57.79
9421;BME280;4749;51.398;5.466;2023-07-20T12:17:51;101289.81;;;29.22;57.99
9421;BME280;4749;51.398;5.466;2023-07-20T12:23:03;101291.56;;;28.96;57.03
9421;BME280;4749;51.398;5.466;2023-07-20T12:25:45;101278.31;;;28.64;56.50
9421;BME280;4749;51.398;5.466;2023-07-20T12:28:18;101283.06;;;28.34;57.42
9421;BME280;4749;51.398;5.466;2023-07-20T12:30:47;101284.88;;;28.04;57.98
9421;BME280;4749;51.398;5.466;2023-07-20T12:33:18;101280.53;;;27.73;58.27
9421;BME280;4749;51.398;5.466;2023-07-20T12:35:45;101283.16;;;27.45;58.28
9421;BME280;4749;51.398;5.466;2023-07-20T12:38:12;101271.25;;;27.19;58.69
9421;BME280;4749;51.398;5.466;2023-07-20T12:40:40;101275.19;;;26.98;58.78
9421;BME280;4749;51.398;5.466;2023-07-20T12:43:08;101275.59;;;26.76;59.01
9421;BME280;4749;51.398;5.466;2023-07-20T12:45:35;101270.53;;;26.54;59.07
9421;BME280;4749;51.398;5.466;2023-07-20T12:48:02;101271.47;;;26.37;59.88
9421;BME280;4749;51.398;5.466;2023-07-20T12:50:29;101276.50;;;26.27;59.76
9421;BME280;4749;51.398;5.466;2023-07-20T12:52:56;101273.28;;;26.21;60.11
9421;BME280;4749;51.398;5.466;2023-07-20T12:55:23;101272.41;;;26.20;59.98
9421;BME280;4749;51.398;5.466;2023-07-20T12:57:51;101264.09;;;26.25;60.22
9421;BME280;4749;51.398;5.466;2023-07-20T13:00:19;101263.16;;;26.42;60.28
9421;BME280;4749;51.398;5.466;2023-07-20T13:02:46;101266.34;;;26.64;60.14
9421;BME280;4749;51.398;5.466;2023-07-20T13:05:14;101266.22;;;26.97;60.03
9421;BME280;4749;51.398;5.466;2023-07-20T13:07:42;101259.44;;;27.36;59.91
9421;BME280;4749;51.398;5.466;2023-07-20T13:10:12;101262.59;;;27.72;59.38
9421;BME280;4749;51.398;5.466;2023-07-20T13:12:39;101271.84;;;28.11;58.93
9421;BME280;4749;51.398;5.466;2023-07-20T13:15:10;101265.94;;;28.33;58.37
9421;BME280;4749;51.398;5.466;2023-07-20T13:17:39;101260.50;;;28.47;57.66
9421;BME280;4749;51.398;5.466;2023-07-20T13:20:10;101255.53;;;28.68;57.56
9421;BME280;4749;51.398;5.466;2023-07-20T13:22:44;101263.16;;;28.88;57.15
9421;BME280;4749;51.398;5.466;2023-07-20T13:25:11;101254.91;;;29.04;57.26
9421;BME280;4749;51.398;5.466;2023-07-20T13:27:39;101257.31;;;29.22;56.90
9421;BME280;4749;51.398;5.466;2023-07-20T13:30:06;101259.16;;;29.34;56.24
9421;BME280;4749;51.398;5.466;2023-07-20T13:32:37;101258.63;;;29.41;56.00